TN29 weather

67 Madison Ave Partnership Ltd Heliport
Memphis, Tennessee, United States

Public forecast

Using degrees Fahrenheit for public forecast. Weather courtesy of forecast.io.

METAR (pilot weather report)

Closest report is Memphis International Airport, 6.9 nm (12.7 km) SE. Retrieved 2019/06/18 09:54 UTC (49 minutes ago):

KMEM 180954Z 00000KT 9SM BKN009 BKN020 OVC027 22/21 A2992 RMK AO2 SLP126 T02170211 $

TAF (pilot weather forecast)

Closest forecast is Memphis International Airport, 6.9 nm (12.7 km) SE. Retrieved 2019/06/18 06:33 UTC (4 hours ago):

TAF KMEM 180530Z 1806/1912 14005KT P6SM VCSH SCT040 BKN150 TEMPO 1810/1814 SCT006 BKN010 FM181400 19006KT P6SM VCSH BKN030 BKN250 FM181800 22008KT P6SM VCTS BKN040CB BKN100 FM190000 26004KT P6SM VCSH SCT040 BKN150 FM190600 21004KT P6SM FEW150 BKN250